createdAt,value
2019-06-10T00:01:21.401Z,3.20
2019-06-10T00:03:51.464Z,3.80
2019-06-10T00:06:25.254Z,3.50
2019-06-10T00:08:52.943Z,3.00
2019-06-10T00:11:26.515Z,3.07
2019-06-10T00:13:56.604Z,3.10
2019-06-10T00:16:24.527Z,3.13
2019-06-10T00:18:54.315Z,3.17
2019-06-10T00:21:31.268Z,3.17
2019-06-10T00:24:07.417Z,3.03
2019-06-10T00:26:36.193Z,3.03
2019-06-10T00:29:05.766Z,3.40
2019-06-10T00:31:33.019Z,3.47
2019-06-10T00:34:03.376Z,3.90
2019-06-10T00:36:31.200Z,3.17
2019-06-10T00:39:03.511Z,3.40
2019-06-10T00:41:31.445Z,3.37
2019-06-10T00:44:01.817Z,3.70
2019-06-10T00:46:28.915Z,3.97
2019-06-10T00:48:56.604Z,3.23
2019-06-10T00:51:24.400Z,3.53
2019-06-10T00:53:52.131Z,3.57
2019-06-10T00:56:21.607Z,3.40
2019-06-10T00:58:51.362Z,3.90
2019-06-10T01:01:31.116Z,3.33
2019-06-10T01:03:57.926Z,3.30
2019-06-10T01:06:25.520Z,3.57
2019-06-10T01:08:53.594Z,3.40
2019-06-10T01:11:27.009Z,3.60
2019-06-10T01:13:50.966Z,3.40
2019-06-10T01:16:18.691Z,3.80
2019-06-10T01:18:46.248Z,3.40
2019-06-10T01:21:15.797Z,3.57
2019-06-10T01:23:44.469Z,3.40
2019-06-10T01:26:14.582Z,2.90
2019-06-10T01:28:43.072Z,3.30
2019-06-10T01:31:15.873Z,3.20
2019-06-10T01:33:41.203Z,3.40
2019-06-10T01:36:12.566Z,2.93
2019-06-10T01:38:38.251Z,3.13
2019-06-10T01:41:06.076Z,3.30
2019-06-10T01:43:34.892Z,3.03
2019-06-10T01:46:03.063Z,3.33
2019-06-10T01:48:43.287Z,2.90
2019-06-10T01:51:01.792Z,3.43
2019-06-10T01:53:31.235Z,2.90
2019-06-10T01:56:00.986Z,3.20
2019-06-10T01:58:33.088Z,3.17
2019-06-10T02:01:13.858Z,3.13
2019-06-10T02:03:41.496Z,2.90
2019-06-10T02:06:12.539Z,2.70
2019-06-10T02:08:38.839Z,2.80
2019-06-10T02:11:06.227Z,3.33
2019-06-10T02:13:35.065Z,3.30
2019-06-10T02:16:03.698Z,3.10
2019-06-10T02:18:31.935Z,2.87
2019-06-10T02:21:00.968Z,3.33
2019-06-10T02:23:33.938Z,3.10
2019-06-10T02:26:07.561Z,3.57
2019-06-10T02:28:37.424Z,2.97
2019-06-10T02:31:05.021Z,2.97
2019-06-10T02:33:36.575Z,2.97
2019-06-10T02:36:05.657Z,3.37
2019-06-10T02:38:39.388Z,3.30
2019-06-10T02:41:22.629Z,3.10
2019-06-10T02:43:48.405Z,3.73
2019-06-10T02:46:19.720Z,3.87
2019-06-10T02:48:45.902Z,2.87
2019-06-10T02:51:15.337Z,2.80
2019-06-10T02:53:54.240Z,2.60
2019-06-10T02:56:29.984Z,2.87
2019-06-10T02:58:56.823Z,2.53
2019-06-10T03:01:31.394Z,3.50
2019-06-10T03:04:04.395Z,2.60
2019-06-10T03:06:39.325Z,3.20
2019-06-10T03:09:03.930Z,3.00
2019-06-10T03:11:37.212Z,2.87
2019-06-10T03:14:06.457Z,2.80
2019-06-10T03:16:52.591Z,3.10
2019-06-10T03:19:40.914Z,3.13
2019-06-10T03:21:55.475Z,2.63
2019-06-10T03:24:38.431Z,3.17
2019-06-10T03:27:14.776Z,2.90
2019-06-10T03:29:44.331Z,3.00
2019-06-10T03:32:19.173Z,3.00
2019-06-10T03:34:47.390Z,3.57
2019-06-10T03:37:16.083Z,3.37
2019-06-10T03:39:43.922Z,3.23
2019-06-10T03:42:23.719Z,3.23
2019-06-10T03:44:52.578Z,3.60
2019-06-10T03:47:23.869Z,3.33
2019-06-10T03:50:06.625Z,3.50
2019-06-10T03:52:37.564Z,3.70
2019-06-10T03:55:06.126Z,4.00
2019-06-10T03:57:36.614Z,3.60
2019-06-10T04:00:14.108Z,4.07
2019-06-10T04:02:45.172Z,4.37
2019-06-10T04:05:15.919Z,3.60
2019-06-10T04:08:04.960Z,3.63
2019-06-10T04:10:45.808Z,3.30
2019-06-10T04:13:14.555Z,3.60
2019-06-10T04:15:58.620Z,3.80
2019-06-10T04:18:29.465Z,3.60
2019-06-10T04:21:02.040Z,3.57
2019-06-10T04:23:28.925Z,3.50
2019-06-10T04:25:57.994Z,3.97
2019-06-10T04:28:27.271Z,3.10
2019-06-10T04:31:02.604Z,3.53
2019-06-10T04:33:37.325Z,3.17
2019-06-10T04:36:07.145Z,3.67
2019-06-10T04:39:03.000Z,3.40
2019-06-10T04:41:37.343Z,3.10
2019-06-10T04:44:05.054Z,3.60
2019-06-10T04:46:48.861Z,3.53
2019-06-10T04:49:21.376Z,3.60
2019-06-10T04:51:49.659Z,3.77
2019-06-10T04:54:54.734Z,3.87
2019-06-10T04:57:25.317Z,3.57
2019-06-10T04:59:59.832Z,3.17
2019-06-10T05:02:43.199Z,3.87
2019-06-10T05:05:13.053Z,3.33
2019-06-10T05:07:42.755Z,3.53
2019-06-10T05:10:12.394Z,3.17
2019-06-10T05:12:43.203Z,3.70
2019-06-10T05:15:22.010Z,3.70
2019-06-10T05:17:56.642Z,3.57
2019-06-10T05:20:57.707Z,2.87
2019-06-10T05:23:22.491Z,3.53
2019-06-10T05:25:56.181Z,3.40
2019-06-10T05:28:34.176Z,3.50
2019-06-10T05:31:02.853Z,3.30
2019-06-10T05:33:38.494Z,3.60
2019-06-10T05:36:06.314Z,3.23
2019-06-10T05:38:35.777Z,3.40
2019-06-10T05:41:03.338Z,3.30
2019-06-10T05:43:34.407Z,2.97
2019-06-10T05:46:03.024Z,3.27
2019-06-10T05:48:40.643Z,3.20
2019-06-10T05:51:08.674Z,3.17
2019-06-10T05:53:36.286Z,3.37
2019-06-10T05:56:09.886Z,3.37
2019-06-10T05:58:38.590Z,2.70
2019-06-10T06:01:06.382Z,2.90
2019-06-10T06:03:36.882Z,2.80
2019-06-10T06:06:04.153Z,2.83
2019-06-10T06:08:35.421Z,2.83
2019-06-10T06:11:03.476Z,2.50
2019-06-10T06:13:34.190Z,2.67
2019-06-10T06:16:09.305Z,2.70
2019-06-10T06:18:43.228Z,2.23
2019-06-10T06:21:22.425Z,2.60
2019-06-10T06:23:46.156Z,2.80
2019-06-10T06:26:16.456Z,2.57
2019-06-10T06:28:43.388Z,2.43
2019-06-10T06:31:13.644Z,2.33
2019-06-10T06:33:43.271Z,2.30
2019-06-10T06:36:38.203Z,2.40
2019-06-10T06:39:07.470Z,2.40
2019-06-10T06:41:39.109Z,2.63
2019-06-10T06:44:07.095Z,2.50
2019-06-10T06:46:37.576Z,2.63
2019-06-10T06:49:04.460Z,2.83
2019-06-10T06:51:46.888Z,2.77
2019-06-10T06:54:03.262Z,2.50
2019-06-10T06:56:34.507Z,2.90
2019-06-10T06:59:02.545Z,2.60
2019-06-10T07:01:35.806Z,2.40
2019-06-10T07:04:02.686Z,2.60
2019-06-10T07:06:32.910Z,2.37
2019-06-10T07:09:07.421Z,2.53
2019-06-10T07:11:33.982Z,2.13
2019-06-10T07:14:03.804Z,2.50
2019-06-10T07:16:46.610Z,2.30
2019-06-10T07:19:14.510Z,2.20
2019-06-10T07:22:04.150Z,2.20
2019-06-10T07:24:14.762Z,2.40
2019-06-10T07:26:50.530Z,2.50
2019-06-10T07:29:19.622Z,2.20
2019-06-10T07:31:50.332Z,2.40
2019-06-10T07:34:17.699Z,2.10
2019-06-10T07:36:52.208Z,2.10
2019-06-10T07:39:22.750Z,2.17
2019-06-10T07:41:52.831Z,2.43
2019-06-10T07:44:22.636Z,2.37
2019-06-10T07:46:52.835Z,2.10
2019-06-10T07:49:23.789Z,2.30
2019-06-10T07:51:54.205Z,2.10
2019-06-10T07:54:23.069Z,2.30
2019-06-10T07:56:53.692Z,2.33
2019-06-10T07:59:23.288Z,2.30
2019-06-10T08:01:55.113Z,2.23
2019-06-10T08:04:23.279Z,2.20
2019-06-10T08:06:53.002Z,2.00
2019-06-10T08:09:25.898Z,2.50
2019-06-10T08:12:03.383Z,2.37
2019-06-10T08:14:32.991Z,2.50
2019-06-10T08:17:03.103Z,2.07
2019-06-10T08:19:35.797Z,2.23
2019-06-10T08:22:13.153Z,2.17
2019-06-10T08:24:43.587Z,2.07
2019-06-10T08:27:12.105Z,2.87
2019-06-10T08:29:43.607Z,2.13
2019-06-10T08:32:14.178Z,2.00
2019-06-10T08:34:44.712Z,2.20
2019-06-10T08:37:13.590Z,2.00
2019-06-10T08:39:53.273Z,2.23
2019-06-10T08:42:23.312Z,2.57
2019-06-10T08:45:00.044Z,2.17
2019-06-10T08:47:27.760Z,2.23
2019-06-10T08:49:55.426Z,2.40
2019-06-10T08:52:26.484Z,2.20
2019-06-10T08:54:55.010Z,2.50
2019-06-10T08:57:23.884Z,2.53
2019-06-10T08:59:55.248Z,2.20
2019-06-10T09:02:26.122Z,2.67
2019-06-10T09:04:53.893Z,2.30
2019-06-10T09:07:23.757Z,2.60
2019-06-10T09:09:53.785Z,1.97
2019-06-10T09:12:32.462Z,2.40
2019-06-10T09:14:53.270Z,2.00
2019-06-10T09:17:22.858Z,2.27
2019-06-10T09:19:54.189Z,2.20
2019-06-10T09:22:25.663Z,2.30
2019-06-10T09:24:58.904Z,2.63
2019-06-10T09:27:27.180Z,2.40
2019-06-10T09:29:55.818Z,2.23
2019-06-10T09:32:25.640Z,2.20
2019-06-10T09:34:57.801Z,2.27
2019-06-10T09:37:37.843Z,2.57
2019-06-10T09:40:07.141Z,2.13
2019-06-10T09:42:37.154Z,2.30
2019-06-10T09:45:13.237Z,2.20
2019-06-10T09:47:53.506Z,2.10
2019-06-10T09:50:27.029Z,2.27
2019-06-10T09:52:57.143Z,2.40
2019-06-10T09:55:34.094Z,2.50
2019-06-10T09:58:03.149Z,2.33
2019-06-10T10:00:45.236Z,2.50
2019-06-10T10:03:18.774Z,2.30
2019-06-10T10:05:59.390Z,2.30
2019-06-10T10:08:15.773Z,2.30
2019-06-10T10:10:47.249Z,2.40
2019-06-10T10:13:14.824Z,2.27
2019-06-10T10:15:44.103Z,2.63
2019-06-10T10:18:13.407Z,2.60
2019-06-10T10:20:44.825Z,2.83
2019-06-10T10:23:13.164Z,3.13
2019-06-10T10:25:48.233Z,2.83
2019-06-10T10:28:22.094Z,2.53
2019-06-10T10:30:50.310Z,2.20
2019-06-10T10:33:18.515Z,2.57
2019-06-10T10:35:52.726Z,2.80
2019-06-10T10:38:34.891Z,2.87
2019-06-10T10:41:05.055Z,2.93
2019-06-10T10:43:43.671Z,3.20
2019-06-10T10:46:14.324Z,2.77
2019-06-10T10:48:47.108Z,2.47
2019-06-10T10:51:16.450Z,3.30
2019-06-10T10:53:56.247Z,2.90
2019-06-10T10:56:18.003Z,3.10
2019-06-10T10:58:47.349Z,2.93
2019-06-10T11:01:17.413Z,3.30
2019-06-10T11:03:47.603Z,3.20
2019-06-10T11:06:23.196Z,3.20
2019-06-10T11:08:55.217Z,3.23
2019-06-10T11:11:22.839Z,3.03
2019-06-10T11:13:53.314Z,2.73
2019-06-10T11:16:19.555Z,3.53
2019-06-10T11:18:49.315Z,3.60
2019-06-10T11:21:17.103Z,3.40
2019-06-10T11:23:46.112Z,3.37
2019-06-10T11:26:14.332Z,3.53
2019-06-10T11:28:47.460Z,3.23
2019-06-10T11:31:15.322Z,2.93
2019-06-10T11:33:44.527Z,3.67
2019-06-10T11:36:13.430Z,3.47
2019-06-10T11:38:41.593Z,3.50
2019-06-10T11:41:09.849Z,3.10
2019-06-10T11:43:37.823Z,3.80
2019-06-10T11:46:07.786Z,3.50
2019-06-10T11:48:35.181Z,3.47
2019-06-10T11:51:04.586Z,3.23
2019-06-10T11:53:34.401Z,3.20
2019-06-10T11:56:02.560Z,2.97
2019-06-10T11:58:33.058Z,3.03
2019-06-10T12:01:01.381Z,3.27
2019-06-10T12:03:29.312Z,3.13
2019-06-10T12:06:05.747Z,3.17
2019-06-10T12:08:34.786Z,3.00
2019-06-10T12:11:02.555Z,3.20
2019-06-10T12:13:34.310Z,3.13
2019-06-10T12:18:33.569Z,2.90
2019-06-10T12:21:04.594Z,3.60
2019-06-10T12:23:33.593Z,3.37
2019-06-10T12:26:08.343Z,3.10
2019-06-10T12:28:36.961Z,3.40
2019-06-10T12:31:07.631Z,2.93
2019-06-10T12:33:35.608Z,3.27
2019-06-10T12:36:07.766Z,3.97
2019-06-10T12:38:35.768Z,3.07
2019-06-10T12:41:08.381Z,3.70
2019-06-10T12:43:35.076Z,4.50
2019-06-10T12:46:03.420Z,3.80
2019-06-10T12:48:34.172Z,4.07
2019-06-10T12:51:05.714Z,4.03
2019-06-10T12:53:32.552Z,3.40
2019-06-10T12:56:07.307Z,3.80
2019-06-10T12:58:30.293Z,3.20
2019-06-10T13:00:59.309Z,3.90
2019-06-10T13:03:29.397Z,4.00
2019-06-10T13:05:59.524Z,4.30
2019-06-10T13:08:27.360Z,4.10
2019-06-10T13:10:56.877Z,3.47
2019-06-10T13:13:28.433Z,3.60
2019-06-10T13:15:56.353Z,3.37
2019-06-10T13:18:25.036Z,4.00
2019-06-10T13:20:53.776Z,4.00
2019-06-10T13:23:31.565Z,3.77
2019-06-10T13:25:58.714Z,4.20
2019-06-10T13:28:29.407Z,3.70
2019-06-10T13:30:57.212Z,3.60
2019-06-10T13:33:27.047Z,3.77
2019-06-10T13:35:54.639Z,4.50
2019-06-10T13:38:22.770Z,4.10
2019-06-10T13:40:54.359Z,4.37
2019-06-10T13:43:23.223Z,3.90
2019-06-10T13:46:00.075Z,4.57
2019-06-10T13:48:29.233Z,3.90
2019-06-10T13:51:09.118Z,4.53
2019-06-10T13:53:37.603Z,4.20
2019-06-10T13:56:28.704Z,4.23
2019-06-10T13:58:45.054Z,3.87
2019-06-10T14:01:21.131Z,4.10
2019-06-10T14:03:46.694Z,4.30
2019-06-10T14:06:32.648Z,4.80
2019-06-10T14:08:44.731Z,4.30
2019-06-10T14:11:13.307Z,4.43
2019-06-10T14:13:44.455Z,4.20
2019-06-10T14:16:14.149Z,3.67
2019-06-10T14:19:09.189Z,3.90
2019-06-10T14:21:47.771Z,4.10
2019-06-10T14:24:16.455Z,4.83
2019-06-10T14:26:45.728Z,4.53
2019-06-10T14:29:16.967Z,3.70
2019-06-10T14:32:22.432Z,4.07
2019-06-10T14:34:52.767Z,4.27
2019-06-10T14:37:33.097Z,4.50
2019-06-10T14:39:52.917Z,4.53
2019-06-10T14:42:23.112Z,3.97
2019-06-10T14:44:52.641Z,4.70
2019-06-10T14:47:20.180Z,4.20
2019-06-10T14:49:47.976Z,4.33
2019-06-10T14:52:19.108Z,4.37
2019-06-10T14:54:53.193Z,5.10
2019-06-10T14:57:25.155Z,4.80
2019-06-10T14:59:56.176Z,4.00
2019-06-10T15:02:23.878Z,4.50
2019-06-10T15:04:53.180Z,4.07
2019-06-10T15:07:24.006Z,5.03
2019-06-10T15:09:53.736Z,4.17
2019-06-10T15:12:23.452Z,4.93
2019-06-10T15:14:52.159Z,4.63
2019-06-10T15:17:44.889Z,4.37
2019-06-10T15:20:13.790Z,4.47
2019-06-10T15:22:43.951Z,4.43
2019-06-10T15:25:19.350Z,4.97
2019-06-10T15:28:03.225Z,5.70
2019-06-10T15:30:33.861Z,5.80
2019-06-10T15:33:16.311Z,5.20
2019-06-10T15:36:04.032Z,5.70
2019-06-10T15:38:38.462Z,5.50
2019-06-10T15:41:06.618Z,6.40
2019-06-10T15:43:42.920Z,6.43
2019-06-10T15:46:16.304Z,6.50
2019-06-10T15:48:48.232Z,7.00
2019-06-10T15:51:33.540Z,6.60
2019-06-10T15:54:03.594Z,6.03
2019-06-10T15:56:45.093Z,5.63
2019-06-10T15:59:21.459Z,4.67
2019-06-10T16:01:49.374Z,5.20
2019-06-10T16:04:19.304Z,4.43
2019-06-10T16:06:53.042Z,5.00
2019-06-10T16:09:27.093Z,5.57
2019-06-10T16:12:19.249Z,6.30
2019-06-10T16:14:52.972Z,5.97
2019-06-10T16:17:24.827Z,6.70
2019-06-10T16:19:56.795Z,5.73
2019-06-10T16:22:26.256Z,5.70
2019-06-10T16:24:58.323Z,5.77
2019-06-10T16:27:46.867Z,5.90
2019-06-10T16:30:02.822Z,5.73
2019-06-10T16:32:32.932Z,5.90
2019-06-10T16:35:04.535Z,4.63
2019-06-10T16:41:24.737Z,5.67
2019-06-10T16:45:20.946Z,4.40
2019-06-10T16:58:30.344Z,4.07
2019-06-10T17:00:57.836Z,3.73
2019-06-10T17:03:31.476Z,3.87
2019-06-10T17:06:48.305Z,3.40
2019-06-10T17:09:52.601Z,3.97
2019-06-10T17:12:28.806Z,3.93
2019-06-10T17:18:29.973Z,3.30
2019-06-10T17:21:09.538Z,3.67
2019-06-10T17:24:12.647Z,3.43
2019-06-10T17:26:46.374Z,4.00
2019-06-10T17:29:16.227Z,4.37
2019-06-10T17:31:46.095Z,4.90
2019-06-10T17:34:16.385Z,5.37
2019-06-10T17:36:48.398Z,5.10
2019-06-10T17:39:21.299Z,5.37
2019-06-10T17:41:50.443Z,6.20
2019-06-10T17:44:24.374Z,5.90
2019-06-10T17:46:52.855Z,6.40
2019-06-10T17:49:24.673Z,6.47
2019-06-10T17:51:52.599Z,6.40
2019-06-10T17:54:22.500Z,5.70
2019-06-10T17:56:53.151Z,6.20
2019-06-10T17:59:22.485Z,6.33
2019-06-10T18:01:55.825Z,6.53
2019-06-10T18:04:25.599Z,6.90
2019-06-10T18:06:55.331Z,6.60
2019-06-10T18:09:24.493Z,5.97
2019-06-10T18:11:52.564Z,6.33
2019-06-10T18:14:22.777Z,6.20
2019-06-10T18:16:52.438Z,5.70
2019-06-10T18:19:22.249Z,5.73
2019-06-10T18:21:52.140Z,6.50
2019-06-10T18:24:21.424Z,6.50
2019-06-10T18:26:49.320Z,6.00
2019-06-10T18:29:17.012Z,6.13
2019-06-10T18:31:46.796Z,6.40
2019-06-10T18:34:14.324Z,6.33
2019-06-10T18:36:43.869Z,5.90
2019-06-10T18:39:12.520Z,5.60
2019-06-10T18:41:40.634Z,5.80
2019-06-10T18:44:22.467Z,6.20
2019-06-10T18:46:45.282Z,5.73
2019-06-10T18:49:22.522Z,5.30
2019-06-10T18:51:55.095Z,5.60
2019-06-10T18:54:24.057Z,5.70
2019-06-10T18:56:52.536Z,5.97
2019-06-10T18:59:22.613Z,6.30
2019-06-10T19:01:52.734Z,5.93
2019-06-10T19:04:26.845Z,6.07
2019-06-10T19:06:56.998Z,5.53
2019-06-10T19:09:26.931Z,5.90
2019-06-10T19:11:54.523Z,5.63
2019-06-10T19:14:22.492Z,5.13
2019-06-10T19:16:52.414Z,5.53
2019-06-10T19:19:22.764Z,5.47
2019-06-10T19:22:05.570Z,5.80
2019-06-10T19:24:23.531Z,5.63
2019-06-10T19:26:52.859Z,6.43
2019-06-10T19:29:33.450Z,6.70
2019-06-10T19:31:52.642Z,6.13
2019-06-10T19:34:22.460Z,6.73
2019-06-10T19:36:52.162Z,6.40
2019-06-10T19:39:26.683Z,5.87
2019-06-10T19:41:54.492Z,6.50
2019-06-10T19:44:23.426Z,7.23
2019-06-10T19:46:52.239Z,7.27
2019-06-10T19:49:21.228Z,6.70
2019-06-10T19:51:48.704Z,7.17
2019-06-10T19:54:16.215Z,7.13
2019-06-10T19:56:52.459Z,6.60
2019-06-10T19:59:23.090Z,7.90
2019-06-10T20:01:55.593Z,7.90
2019-06-10T20:04:23.494Z,7.43
2019-06-10T20:06:53.639Z,8.07
2019-06-10T20:09:23.267Z,8.07
2019-06-10T20:12:02.024Z,7.90
2019-06-10T20:14:48.022Z,7.60
2019-06-10T20:17:15.779Z,7.40
2019-06-10T20:19:45.711Z,6.37
2019-06-10T20:22:19.237Z,7.53
2019-06-10T20:24:52.481Z,7.10
2019-06-10T20:27:24.001Z,7.33
2019-06-10T20:30:04.529Z,7.30
2019-06-10T20:32:29.005Z,6.90
2019-06-10T20:34:56.647Z,8.17
2019-06-10T20:37:28.969Z,7.73
2019-06-10T20:39:57.690Z,7.77
2019-06-10T20:42:26.310Z,7.60
2019-06-10T20:45:07.164Z,7.87
2019-06-10T20:47:39.506Z,6.80
2019-06-10T20:50:07.085Z,6.80
2019-06-10T20:52:35.856Z,6.07
2019-06-10T20:55:07.579Z,6.60
2019-06-10T20:57:49.920Z,5.90
2019-06-10T21:00:18.734Z,5.57
2019-06-10T21:02:34.806Z,5.53
2019-06-10T21:05:02.899Z,5.40
2019-06-10T21:07:44.190Z,5.37
2019-06-10T21:10:22.240Z,4.60
2019-06-10T21:12:50.992Z,5.00
2019-06-10T21:15:25.014Z,4.60
2019-06-10T21:17:55.840Z,4.47
2019-06-10T21:20:23.463Z,4.70
2019-06-10T21:22:55.762Z,4.40
2019-06-10T21:25:24.405Z,4.20
2019-06-10T21:27:54.881Z,4.33
2019-06-10T21:30:37.654Z,4.20
2019-06-10T21:32:54.789Z,4.37
2019-06-10T21:35:22.337Z,4.40
2019-06-10T21:37:51.629Z,4.10
2019-06-10T21:40:22.308Z,4.17
2019-06-10T21:42:50.586Z,4.53
2019-06-10T21:45:19.412Z,4.00
2019-06-10T21:47:50.414Z,4.00
2019-06-10T21:50:18.293Z,4.20
2019-06-10T21:52:53.505Z,4.60
2019-06-10T21:55:25.403Z,4.60
2019-06-10T21:57:55.111Z,4.50
2019-06-10T22:00:29.169Z,4.63
2019-06-10T22:02:58.646Z,4.20
2019-06-10T22:05:26.519Z,4.83
2019-06-10T22:08:00.071Z,4.87
2019-06-10T22:10:27.905Z,5.03
2019-06-10T22:12:59.122Z,4.70
2019-06-10T22:15:28.252Z,4.67
2019-06-10T22:17:56.119Z,4.70
2019-06-10T22:20:23.882Z,4.83
2019-06-10T22:22:55.108Z,4.00
2019-06-10T22:25:23.177Z,4.87
2019-06-10T22:27:51.862Z,4.73
2019-06-10T22:30:19.968Z,4.53
2019-06-10T22:32:47.483Z,4.93
2019-06-10T22:35:15.085Z,4.77
2019-06-10T22:37:43.488Z,4.40
2019-06-10T22:40:12.394Z,4.90
2019-06-10T22:42:40.237Z,4.97
2019-06-10T22:45:07.962Z,5.50
2019-06-10T22:47:37.664Z,5.23
2019-06-10T22:50:07.573Z,5.17
2019-06-10T22:52:34.935Z,4.97
2019-06-10T22:55:03.499Z,4.37
2019-06-10T22:57:31.490Z,5.10
2019-06-10T23:00:06.403Z,5.70
2019-06-10T23:02:33.864Z,5.13
2019-06-10T23:05:05.103Z,5.53
2019-06-10T23:07:32.858Z,6.00
2019-06-10T23:10:03.052Z,5.90
2019-06-10T23:12:29.590Z,6.40
2019-06-10T23:14:59.320Z,6.47
2019-06-10T23:17:26.893Z,6.40
2019-06-10T23:19:58.160Z,7.17
2019-06-10T23:22:26.552Z,8.33
2019-06-10T23:24:55.733Z,8.23
2019-06-10T23:27:23.965Z,9.00
2019-06-10T23:29:53.923Z,8.07
2019-06-10T23:32:22.203Z,8.83
2019-06-10T23:34:49.646Z,8.53
2019-06-10T23:37:17.114Z,9.30
2019-06-10T23:39:46.007Z,9.40
2019-06-10T23:42:13.934Z,10.30
2019-06-10T23:44:41.934Z,9.60
2019-06-10T23:47:12.598Z,8.43
2019-06-10T23:49:39.783Z,10.17
2019-06-10T23:52:07.345Z,10.73
2019-06-10T23:54:35.216Z,11.13
2019-06-10T23:57:05.710Z,10.93
2019-06-10T23:59:33.268Z,11.83
